createdAt,value
2024-02-11T00:00:47.526Z,0
2024-02-11T00:01:47.542Z,0
2024-02-11T00:02:47.526Z,0
2024-02-11T00:03:47.526Z,0
2024-02-11T00:04:47.570Z,0
2024-02-11T00:05:47.514Z,0
2024-02-11T00:06:47.500Z,0
2024-02-11T00:07:47.554Z,0
2024-02-11T00:08:47.512Z,0
2024-02-11T00:09:47.503Z,0
2024-02-11T00:10:47.508Z,0
2024-02-11T00:11:47.511Z,0
2024-02-11T00:12:47.501Z,0
2024-02-11T00:13:47.516Z,0
2024-02-11T00:14:47.501Z,0
2024-02-11T00:15:47.519Z,0
2024-02-11T00:16:47.545Z,0
2024-02-11T00:17:47.793Z,0
2024-02-11T00:18:47.530Z,0
2024-02-11T00:19:47.565Z,0
2024-02-11T00:20:47.512Z,0
2024-02-11T00:21:47.514Z,0
2024-02-11T00:22:47.515Z,0
2024-02-11T00:23:47.513Z,0
2024-02-11T00:24:47.509Z,0
2024-02-11T00:25:47.521Z,0
2024-02-11T00:26:47.508Z,0
2024-02-11T00:27:47.512Z,0
2024-02-11T00:28:47.516Z,0
2024-02-11T00:29:47.516Z,0
2024-02-11T00:30:47.517Z,0
2024-02-11T00:31:47.545Z,0
2024-02-11T00:32:47.619Z,0
2024-02-11T00:33:47.560Z,0
2024-02-11T00:34:47.557Z,0
2024-02-11T00:35:47.520Z,0
2024-02-11T00:36:47.522Z,0
2024-02-11T00:37:47.578Z,0
2024-02-11T00:38:47.520Z,0
2024-02-11T00:39:47.519Z,0
2024-02-11T00:40:47.574Z,0
2024-02-11T00:41:47.536Z,0
2024-02-11T00:42:47.528Z,0
2024-02-11T00:43:47.554Z,0
2024-02-11T00:44:47.526Z,0
2024-02-11T00:45:47.529Z,0
2024-02-11T00:46:47.676Z,0
2024-02-11T00:47:47.545Z,0
2024-02-11T00:48:47.683Z,0
2024-02-11T00:49:47.561Z,0
2024-02-11T00:50:47.551Z,0
2024-02-11T00:51:47.528Z,0
2024-02-11T00:52:47.591Z,0
2024-02-11T00:53:47.543Z,0
2024-02-11T00:54:47.524Z,0
2024-02-11T00:55:47.543Z,0
2024-02-11T00:56:47.529Z,0
2024-02-11T00:57:47.530Z,0
2024-02-11T00:58:47.550Z,0
2024-02-11T00:59:47.529Z,0
2024-02-11T01:00:47.628Z,0
2024-02-11T01:01:47.558Z,0
2024-02-11T01:02:47.537Z,0
2024-02-11T01:03:47.527Z,0
2024-02-11T01:04:47.572Z,0
2024-02-11T01:05:47.572Z,0
2024-02-11T01:06:47.587Z,0
2024-02-11T01:07:47.549Z,0
2024-02-11T01:08:47.529Z,0
2024-02-11T01:09:47.527Z,0
2024-02-11T01:10:47.585Z,0
2024-02-11T01:11:47.530Z,0
2024-02-11T01:12:47.521Z,0
2024-02-11T01:13:47.614Z,0
2024-02-11T01:14:47.528Z,0
2024-02-11T01:15:47.525Z,0
2024-02-11T01:16:47.558Z,0
2024-02-11T01:17:47.541Z,0
2024-02-11T01:18:47.729Z,0
2024-02-11T01:19:47.535Z,0
2024-02-11T01:20:47.535Z,0
2024-02-11T01:21:47.532Z,0
2024-02-11T01:22:47.656Z,0
2024-02-11T01:23:47.530Z,0
2024-02-11T01:24:47.547Z,0
2024-02-11T01:25:47.538Z,0
2024-02-11T01:26:47.535Z,0
2024-02-11T01:27:47.533Z,0
2024-02-11T01:28:47.568Z,0
2024-02-11T01:29:47.535Z,0
2024-02-11T01:30:47.536Z,0
2024-02-11T01:31:47.592Z,0
2024-02-11T01:32:47.628Z,0
2024-02-11T01:33:47.569Z,0
2024-02-11T01:34:47.557Z,0
2024-02-11T01:35:47.552Z,0
2024-02-11T01:36:47.555Z,0
2024-02-11T01:37:47.570Z,0
2024-02-11T01:38:47.564Z,0
2024-02-11T01:39:47.541Z,0
2024-02-11T01:40:47.579Z,0
2024-02-11T01:41:47.549Z,0
2024-02-11T01:42:47.874Z,0
2024-02-11T01:43:47.551Z,0
2024-02-11T01:44:47.544Z,0
2024-02-11T01:45:47.548Z,0
2024-02-11T01:46:47.552Z,0
2024-02-11T01:47:48.119Z,0
2024-02-11T01:48:47.573Z,0
2024-02-11T01:49:47.554Z,0
2024-02-11T01:50:47.546Z,0
2024-02-11T01:51:47.555Z,0
2024-02-11T01:52:47.589Z,0
2024-02-11T01:53:47.553Z,0
2024-02-11T01:54:47.577Z,0
2024-02-11T01:55:47.562Z,0
2024-02-11T01:56:47.552Z,0
2024-02-11T01:57:47.569Z,0
2024-02-11T01:58:47.607Z,0
2024-02-11T01:59:47.558Z,0
2024-02-11T02:00:47.561Z,0
2024-02-11T02:01:47.565Z,0
2024-02-11T02:02:47.559Z,0
2024-02-11T02:03:47.557Z,0
2024-02-11T02:04:47.600Z,0
2024-02-11T02:05:47.627Z,0
2024-02-11T02:06:47.594Z,0
2024-02-11T02:07:47.627Z,0
2024-02-11T02:08:47.563Z,0
2024-02-11T02:09:47.581Z,0
2024-02-11T02:10:47.630Z,0
2024-02-11T02:11:47.565Z,0
2024-02-11T02:12:47.566Z,0
2024-02-11T02:13:47.644Z,0
2024-02-11T02:14:47.574Z,0
2024-02-11T02:15:47.572Z,0
2024-02-11T02:16:47.600Z,0
2024-02-11T02:17:47.760Z,0
2024-02-11T02:18:47.783Z,0
2024-02-11T02:19:47.581Z,0
2024-02-11T02:20:47.587Z,0
2024-02-11T02:21:47.571Z,0
2024-02-11T02:22:47.611Z,0
2024-02-11T02:23:47.584Z,0
2024-02-11T02:24:47.576Z,0
2024-02-11T02:25:47.591Z,0
2024-02-11T02:26:47.602Z,0
2024-02-11T02:27:47.576Z,0
2024-02-11T02:28:47.596Z,0
2024-02-11T02:29:47.579Z,0
2024-02-11T02:30:47.581Z,0
2024-02-11T02:31:47.616Z,0
2024-02-11T02:32:47.615Z,0
2024-02-11T02:33:47.627Z,0
2024-02-11T02:34:47.609Z,0
2024-02-11T02:35:47.577Z,0
2024-02-11T02:36:47.578Z,0
2024-02-11T02:37:47.640Z,0
2024-02-11T02:38:47.778Z,0
2024-02-11T02:39:47.584Z,0
2024-02-11T02:40:47.594Z,0
2024-02-11T02:41:47.584Z,0
2024-02-11T02:42:47.617Z,0
2024-02-11T02:43:47.603Z,0
2024-02-11T02:44:47.605Z,0
2024-02-11T02:45:47.593Z,0
2024-02-11T02:46:47.593Z,0
2024-02-11T02:47:47.600Z,0
2024-02-11T02:48:47.631Z,0
2024-02-11T02:49:47.711Z,0
2024-02-11T02:50:47.592Z,0
2024-02-11T02:51:47.589Z,0
2024-02-11T02:52:47.601Z,0
2024-02-11T02:53:47.603Z,0
2024-02-11T02:54:47.597Z,0
2024-02-11T02:55:47.603Z,0
2024-02-11T02:56:47.594Z,0
2024-02-11T02:57:47.593Z,0
2024-02-11T02:58:47.653Z,0
2024-02-11T02:59:47.601Z,0
2024-02-11T03:00:47.607Z,0
2024-02-11T03:01:47.590Z,0
2024-02-11T03:02:47.602Z,0
2024-02-11T03:03:47.624Z,0
2024-02-11T03:04:47.640Z,0
2024-02-11T03:05:47.589Z,0
2024-02-11T03:06:47.604Z,0
2024-02-11T03:07:47.616Z,0
2024-02-11T03:08:47.589Z,0
2024-02-11T03:09:47.599Z,0
2024-02-11T03:10:47.646Z,0
2024-02-11T03:11:47.593Z,0
2024-02-11T03:12:47.598Z,0
2024-02-11T03:13:47.611Z,0
2024-02-11T03:14:47.619Z,0
2024-02-11T03:15:47.602Z,0
2024-02-11T03:16:47.616Z,0
2024-02-11T03:17:47.638Z,0
2024-02-11T03:18:47.621Z,0
2024-02-11T03:19:47.661Z,0
2024-02-11T03:20:47.592Z,0
2024-02-11T03:21:48.809Z,0
2024-02-11T03:22:47.630Z,0
2024-02-11T03:23:47.611Z,0
2024-02-11T03:24:47.606Z,0
2024-02-11T03:25:47.626Z,0
2024-02-11T03:26:47.603Z,0
2024-02-11T03:27:47.601Z,0
2024-02-11T03:28:47.605Z,0
2024-02-11T03:29:47.606Z,0
2024-02-11T03:30:47.632Z,0
2024-02-11T03:31:47.618Z,0
2024-02-11T03:32:47.652Z,0
2024-02-11T03:33:47.694Z,0
2024-02-11T03:34:47.624Z,0
2024-02-11T03:35:47.612Z,0
2024-02-11T03:36:47.600Z,0
2024-02-11T03:37:47.710Z,0
2024-02-11T03:38:47.622Z,0
2024-02-11T03:39:47.604Z,0
2024-02-11T03:40:47.626Z,0
2024-02-11T03:41:47.613Z,0
2024-02-11T03:42:47.613Z,0
2024-02-11T03:43:47.634Z,0
2024-02-11T03:44:47.605Z,0
2024-02-11T03:45:47.616Z,0
2024-02-11T03:46:47.679Z,0
2024-02-11T03:47:47.634Z,0
2024-02-11T03:48:47.723Z,0
2024-02-11T03:49:47.625Z,0
2024-02-11T03:50:47.621Z,0
2024-02-11T03:51:47.614Z,0
2024-02-11T03:52:47.648Z,0
2024-02-11T03:53:47.624Z,0
2024-02-11T03:54:47.662Z,0
2024-02-11T03:55:47.677Z,0
2024-02-11T03:56:47.632Z,0
2024-02-11T03:57:47.621Z,0
2024-02-11T03:58:47.665Z,0
2024-02-11T03:59:47.615Z,0
2024-02-11T04:00:47.633Z,0
2024-02-11T04:01:47.637Z,0
2024-02-11T04:02:47.645Z,0
2024-02-11T04:03:47.666Z,0
2024-02-11T04:04:47.676Z,0
2024-02-11T04:05:47.623Z,0
2024-02-11T04:06:47.625Z,0
2024-02-11T04:07:48.030Z,0
2024-02-11T04:08:47.617Z,0
2024-02-11T04:09:47.616Z,0
2024-02-11T04:10:47.649Z,0
2024-02-11T04:11:47.629Z,0
2024-02-11T04:12:47.630Z,0
2024-02-11T04:13:47.646Z,0
2024-02-11T04:14:47.621Z,0
2024-02-11T04:15:47.624Z,0
2024-02-11T04:16:47.674Z,0
2024-02-11T04:17:47.703Z,0
2024-02-11T04:18:47.711Z,0
2024-02-11T04:19:47.641Z,0
2024-02-11T04:20:47.620Z,0
2024-02-11T04:21:47.626Z,0
2024-02-11T04:22:47.709Z,0
2024-02-11T04:23:47.761Z,0
2024-02-11T04:24:47.640Z,0
2024-02-11T04:25:47.634Z,0
2024-02-11T04:26:47.635Z,0
2024-02-11T04:27:47.624Z,0
2024-02-11T04:28:47.674Z,0
2024-02-11T04:29:47.624Z,0
2024-02-11T04:30:47.620Z,0
2024-02-11T04:31:47.654Z,0
2024-02-11T04:32:47.648Z,0
2024-02-11T04:33:48.289Z,0
2024-02-11T04:34:47.727Z,0
2024-02-11T04:35:47.708Z,0
2024-02-11T04:36:47.629Z,0
2024-02-11T04:37:47.637Z,0
2024-02-11T04:38:47.639Z,0
2024-02-11T04:39:47.637Z,0
2024-02-11T04:40:47.654Z,0
2024-02-11T04:41:47.635Z,0
2024-02-11T04:42:47.633Z,0
2024-02-11T04:43:47.640Z,0
2024-02-11T04:44:47.632Z,0
2024-02-11T04:45:47.628Z,0
2024-02-11T04:46:47.668Z,0
2024-02-11T04:47:47.677Z,0
2024-02-11T04:48:47.634Z,0
2024-02-11T04:49:47.635Z,0
2024-02-11T04:50:47.673Z,0
2024-02-11T04:51:47.633Z,0
2024-02-11T04:52:47.649Z,0
2024-02-11T04:53:47.642Z,0
2024-02-11T04:54:47.633Z,0
2024-02-11T04:55:47.640Z,0
2024-02-11T04:56:47.639Z,0
2024-02-11T04:57:47.637Z,0
2024-02-11T04:58:47.645Z,0
2024-02-11T04:59:47.634Z,0
2024-02-11T05:00:47.666Z,0
2024-02-11T05:01:47.701Z,0
2024-02-11T05:02:47.633Z,0
2024-02-11T05:03:47.663Z,0
2024-02-11T05:04:47.656Z,0
2024-02-11T05:05:47.698Z,0
2024-02-11T05:06:47.663Z,0
2024-02-11T05:07:47.649Z,0
2024-02-11T05:08:47.637Z,0
2024-02-11T05:09:47.649Z,0
2024-02-11T05:10:47.646Z,0
2024-02-11T05:11:47.644Z,0
2024-02-11T05:12:47.640Z,0
2024-02-11T05:13:47.657Z,0
2024-02-11T05:14:47.638Z,0
2024-02-11T05:15:47.639Z,0
2024-02-11T05:16:47.655Z,0
2024-02-11T05:17:47.677Z,0
2024-02-11T05:18:47.666Z,0
2024-02-11T05:19:47.652Z,0
2024-02-11T05:20:47.663Z,0
2024-02-11T05:21:47.648Z,0
2024-02-11T05:22:47.662Z,0
2024-02-11T05:23:47.638Z,0
2024-02-11T05:24:47.639Z,0
2024-02-11T05:25:47.931Z,0
2024-02-11T05:26:47.640Z,0
2024-02-11T05:27:47.638Z,0
2024-02-11T05:28:47.828Z,0
2024-02-11T05:29:47.645Z,0
2024-02-11T05:30:49.242Z,0
2024-02-11T05:31:47.655Z,0
2024-02-11T05:32:47.735Z,0
2024-02-11T05:33:47.706Z,0
2024-02-11T05:34:47.645Z,0
2024-02-11T05:35:47.904Z,0
2024-02-11T05:36:47.644Z,0
2024-02-11T05:37:47.669Z,0
2024-02-11T05:38:47.681Z,0
2024-02-11T05:39:47.655Z,0
2024-02-11T05:40:47.653Z,0
2024-02-11T05:41:47.648Z,0
2024-02-11T05:42:47.655Z,0
2024-02-11T05:43:47.676Z,0
2024-02-11T05:44:47.646Z,0
2024-02-11T05:45:47.716Z,0
2024-02-11T05:46:47.686Z,0
2024-02-11T05:47:47.665Z,0
2024-02-11T05:48:47.673Z,0
2024-02-11T05:49:47.660Z,0
2024-02-11T05:50:47.831Z,0
2024-02-11T05:51:47.662Z,0
2024-02-11T05:52:47.702Z,0
2024-02-11T05:53:47.645Z,0
2024-02-11T05:54:47.675Z,0
2024-02-11T05:55:47.658Z,0
2024-02-11T05:56:47.648Z,0
2024-02-11T05:57:47.652Z,0
2024-02-11T05:58:47.660Z,0
2024-02-11T05:59:47.649Z,0
2024-02-11T06:00:47.694Z,0
2024-02-11T06:01:47.700Z,0
2024-02-11T06:02:47.649Z,0
2024-02-11T06:03:47.696Z,0
2024-02-11T06:04:47.672Z,0
2024-02-11T06:05:47.652Z,0
2024-02-11T06:06:47.669Z,0
2024-02-11T06:07:47.908Z,0
2024-02-11T06:08:47.694Z,0
2024-02-11T06:09:47.650Z,0
2024-02-11T06:10:47.691Z,0
2024-02-11T06:11:47.657Z,0
2024-02-11T06:12:47.649Z,2
2024-02-11T06:13:47.665Z,2
2024-02-11T06:14:47.651Z,2
2024-02-11T06:15:47.647Z,2
2024-02-11T06:16:47.701Z,2
2024-02-11T06:17:47.674Z,3
2024-02-11T06:18:47.676Z,3
2024-02-11T06:19:47.725Z,3
2024-02-11T06:20:47.824Z,3
2024-02-11T06:21:47.655Z,3
2024-02-11T06:22:47.739Z,5
2024-02-11T06:23:47.664Z,5
2024-02-11T06:24:47.669Z,5
2024-02-11T06:25:47.672Z,5
2024-02-11T06:26:47.683Z,5
2024-02-11T06:27:47.651Z,8
2024-02-11T06:28:47.657Z,8
2024-02-11T06:29:47.656Z,8
2024-02-11T06:30:47.655Z,8
2024-02-11T06:31:47.694Z,8
2024-02-11T06:32:47.794Z,11
2024-02-11T06:33:47.715Z,11
2024-02-11T06:34:47.672Z,11
2024-02-11T06:35:47.651Z,11
2024-02-11T06:36:47.675Z,11
2024-02-11T06:37:47.685Z,15
2024-02-11T06:38:47.654Z,15
2024-02-11T06:39:47.659Z,15
2024-02-11T06:40:47.674Z,15
2024-02-11T06:41:47.660Z,15
2024-02-11T06:42:47.688Z,21
2024-02-11T06:43:47.685Z,21
2024-02-11T06:44:47.659Z,21
2024-02-11T06:45:48.113Z,21
2024-02-11T06:46:47.672Z,21
2024-02-11T06:47:47.733Z,30
2024-02-11T06:48:47.682Z,30
2024-02-11T06:49:47.686Z,30
2024-02-11T06:50:47.671Z,30
2024-02-11T06:51:47.664Z,30
2024-02-11T06:52:47.726Z,33
2024-02-11T06:53:47.669Z,33
2024-02-11T06:54:47.667Z,33
2024-02-11T06:55:47.699Z,33
2024-02-11T06:56:47.672Z,33
2024-02-11T06:57:47.666Z,35
2024-02-11T06:58:47.712Z,35
2024-02-11T06:59:47.681Z,35
2024-02-11T07:00:47.700Z,35
2024-02-11T07:01:47.690Z,35
2024-02-11T07:02:47.685Z,45
2024-02-11T07:03:47.709Z,45
2024-02-11T07:04:47.762Z,45
2024-02-11T07:05:47.734Z,45
2024-02-11T07:06:47.698Z,45
2024-02-11T07:07:47.712Z,55
2024-02-11T07:08:47.694Z,55
2024-02-11T07:09:47.707Z,55
2024-02-11T07:10:47.710Z,55
2024-02-11T07:11:47.697Z,55
2024-02-11T07:12:47.704Z,65
2024-02-11T07:13:47.715Z,65
2024-02-11T07:14:47.728Z,65
2024-02-11T07:15:47.712Z,65
2024-02-11T07:16:47.755Z,65
2024-02-11T07:17:47.745Z,64
2024-02-11T07:18:47.766Z,64
2024-02-11T07:19:47.741Z,64
2024-02-11T07:20:47.718Z,64
2024-02-11T07:21:47.720Z,64
2024-02-11T07:22:47.872Z,66
2024-02-11T07:23:47.728Z,66
2024-02-11T07:24:47.726Z,66
2024-02-11T07:25:47.750Z,66
2024-02-11T07:26:47.728Z,66
2024-02-11T07:27:47.858Z,77
2024-02-11T07:28:47.747Z,77
2024-02-11T07:29:47.744Z,77
2024-02-11T07:30:47.760Z,77
2024-02-11T07:31:47.765Z,77
2024-02-11T07:32:47.797Z,77
2024-02-11T07:33:47.807Z,81
2024-02-11T07:34:47.776Z,81
2024-02-11T07:35:47.937Z,81
2024-02-11T07:36:47.773Z,81
2024-02-11T07:37:47.761Z,81
2024-02-11T07:38:47.753Z,82
2024-02-11T07:39:47.749Z,82
2024-02-11T07:40:47.754Z,82
2024-02-11T07:41:47.757Z,82
2024-02-11T07:42:47.843Z,82
2024-02-11T07:43:47.773Z,101
2024-02-11T07:44:47.761Z,101
2024-02-11T07:45:47.773Z,101
2024-02-11T07:46:47.838Z,101
2024-02-11T07:47:47.937Z,101
2024-02-11T07:48:47.881Z,114
2024-02-11T07:49:47.780Z,114
2024-02-11T07:50:50.178Z,114
2024-02-11T07:51:47.773Z,114
2024-02-11T07:52:47.986Z,114
2024-02-11T07:53:47.772Z,110
2024-02-11T07:54:47.776Z,110
2024-02-11T07:55:47.787Z,110
2024-02-11T07:56:47.781Z,110
2024-02-11T07:57:49.639Z,110
2024-02-11T07:58:47.792Z,114
2024-02-11T07:59:47.783Z,114
2024-02-11T08:00:47.815Z,114
2024-02-11T08:01:47.866Z,114
2024-02-11T08:02:47.868Z,114
2024-02-11T08:03:47.809Z,117
2024-02-11T08:04:47.820Z,117
2024-02-11T08:05:47.862Z,117
2024-02-11T08:06:47.790Z,117
2024-02-11T08:07:47.816Z,117
2024-02-11T08:08:47.794Z,118
2024-02-11T08:09:47.804Z,118
2024-02-11T08:10:47.805Z,118
2024-02-11T08:11:47.797Z,118
2024-02-11T08:12:47.801Z,118
2024-02-11T08:13:49.379Z,146
2024-02-11T08:14:47.796Z,146
2024-02-11T08:15:47.805Z,146
2024-02-11T08:16:47.819Z,146
2024-02-11T08:17:47.838Z,146
2024-02-11T08:18:47.970Z,162
2024-02-11T08:19:47.809Z,162
2024-02-11T08:20:47.818Z,162
2024-02-11T08:21:47.833Z,162
2024-02-11T08:22:47.833Z,162
2024-02-11T08:23:47.816Z,178
2024-02-11T08:24:47.808Z,178
2024-02-11T08:25:47.821Z,178
2024-02-11T08:26:47.814Z,178
2024-02-11T08:27:47.810Z,178
2024-02-11T08:28:47.844Z,193
2024-02-11T08:29:47.812Z,193
2024-02-11T08:30:47.807Z,193
2024-02-11T08:31:47.840Z,193
2024-02-11T08:32:47.871Z,193
2024-02-11T08:33:48.487Z,265
2024-02-11T08:34:47.875Z,265
2024-02-11T08:35:47.819Z,265
2024-02-11T08:36:47.814Z,265
2024-02-11T08:37:47.846Z,265
2024-02-11T08:38:47.820Z,280
2024-02-11T08:39:47.820Z,280
2024-02-11T08:40:47.856Z,280
2024-02-11T08:41:47.818Z,280
2024-02-11T08:42:47.824Z,280
2024-02-11T08:43:47.827Z,251
2024-02-11T08:44:47.829Z,251
2024-02-11T08:45:47.824Z,251
2024-02-11T08:46:47.847Z,251
2024-02-11T08:47:47.885Z,251
2024-02-11T08:48:47.928Z,191
2024-02-11T08:49:47.867Z,191
2024-02-11T08:50:49.199Z,191
2024-02-11T08:51:47.852Z,191
2024-02-11T08:52:47.848Z,191
2024-02-11T08:53:47.830Z,168
2024-02-11T08:54:47.834Z,168
2024-02-11T08:55:47.889Z,168
2024-02-11T08:56:47.834Z,168
2024-02-11T08:57:47.838Z,168
2024-02-11T08:58:47.840Z,199
2024-02-11T08:59:47.840Z,199
2024-02-11T09:00:47.893Z,199
2024-02-11T09:01:47.866Z,199
2024-02-11T09:02:47.841Z,199
2024-02-11T09:03:47.846Z,255
2024-02-11T09:04:47.962Z,255
2024-02-11T09:05:47.908Z,255
2024-02-11T09:06:47.893Z,255
2024-02-11T09:07:47.933Z,255
2024-02-11T09:08:47.848Z,292
2024-02-11T09:09:47.857Z,292
2024-02-11T09:10:47.867Z,292
2024-02-11T09:11:47.858Z,292
2024-02-11T09:12:47.859Z,292
2024-02-11T09:13:47.983Z,318
2024-02-11T09:14:47.857Z,318
2024-02-11T09:15:47.857Z,318
2024-02-11T09:16:47.883Z,318
2024-02-11T09:17:48.491Z,318
2024-02-11T09:18:47.964Z,315
2024-02-11T09:19:47.895Z,315
2024-02-11T09:20:47.872Z,315
2024-02-11T09:21:47.871Z,315
2024-02-11T09:22:47.934Z,315
2024-02-11T09:23:47.867Z,309
2024-02-11T09:24:47.868Z,309
2024-02-11T09:25:47.871Z,309
2024-02-11T09:26:47.866Z,309
2024-02-11T09:27:47.865Z,309
2024-02-11T09:28:47.938Z,289
2024-02-11T09:29:47.884Z,289
2024-02-11T09:30:47.881Z,289
2024-02-11T09:31:47.909Z,289
2024-02-11T09:32:47.930Z,289
2024-02-11T09:33:47.973Z,296
2024-02-11T09:34:47.918Z,296
2024-02-11T09:35:47.898Z,296
2024-02-11T09:36:47.910Z,296
2024-02-11T09:37:47.963Z,296
2024-02-11T09:38:47.920Z,288
2024-02-11T09:39:47.898Z,288
2024-02-11T09:40:47.908Z,288
2024-02-11T09:41:47.886Z,288
2024-02-11T09:42:48.429Z,288
2024-02-11T09:43:47.903Z,293
2024-02-11T09:44:47.889Z,293
2024-02-11T09:45:47.893Z,293
2024-02-11T09:46:47.904Z,293
2024-02-11T09:47:47.917Z,293
2024-02-11T09:48:47.968Z,327
2024-02-11T09:49:47.920Z,327
2024-02-11T09:50:47.908Z,327
2024-02-11T09:51:47.897Z,327
2024-02-11T09:52:48.082Z,327
2024-02-11T09:53:47.909Z,319
2024-02-11T09:54:47.932Z,319
2024-02-11T09:55:47.944Z,319
2024-02-11T09:56:47.916Z,319
2024-02-11T09:57:47.943Z,319
2024-02-11T09:58:47.906Z,364
2024-02-11T09:59:47.929Z,364
2024-02-11T10:00:47.919Z,364
2024-02-11T10:01:47.911Z,364
2024-02-11T10:02:47.945Z,364
2024-02-11T10:03:47.909Z,385
2024-02-11T10:04:48.015Z,385
2024-02-11T10:05:47.992Z,385
2024-02-11T10:06:47.933Z,385
2024-02-11T10:07:48.002Z,385
2024-02-11T10:08:47.908Z,404
2024-02-11T10:09:47.918Z,404
2024-02-11T10:10:48.016Z,404
2024-02-11T10:11:47.916Z,404
2024-02-11T10:12:47.912Z,404
2024-02-11T10:13:47.927Z,411
2024-02-11T10:14:47.918Z,411
2024-02-11T10:15:47.916Z,411
2024-02-11T10:16:47.928Z,411
2024-02-11T10:17:47.990Z,411
2024-02-11T10:18:48.034Z,432
2024-02-11T10:19:47.949Z,432
2024-02-11T10:20:47.928Z,432
2024-02-11T10:21:47.931Z,432
2024-02-11T10:22:47.957Z,432
2024-02-11T10:23:47.920Z,423
2024-02-11T10:24:47.920Z,423
2024-02-11T10:25:47.922Z,423
2024-02-11T10:26:47.952Z,423
2024-02-11T10:27:47.948Z,423
2024-02-11T10:28:47.941Z,468
2024-02-11T10:29:47.958Z,468
2024-02-11T10:30:47.919Z,468
2024-02-11T10:31:47.948Z,468
2024-02-11T10:32:48.002Z,468
2024-02-11T10:33:47.953Z,516
2024-02-11T10:34:47.976Z,516
2024-02-11T10:35:47.917Z,516
2024-02-11T10:36:47.934Z,516
2024-02-11T10:37:49.532Z,516
2024-02-11T10:38:47.917Z,542
2024-02-11T10:39:47.944Z,542
2024-02-11T10:40:47.948Z,542
2024-02-11T10:41:47.919Z,542
2024-02-11T10:42:47.952Z,542
2024-02-11T10:43:48.593Z,575
2024-02-11T10:44:47.924Z,575
2024-02-11T10:45:47.937Z,575
2024-02-11T10:46:47.957Z,575
2024-02-11T10:47:47.955Z,575
2024-02-11T10:48:48.020Z,584
2024-02-11T10:49:47.978Z,584
2024-02-11T10:50:47.943Z,584
2024-02-11T10:51:47.929Z,584
2024-02-11T10:52:47.954Z,584
2024-02-11T10:53:47.926Z,599
2024-02-11T10:54:47.925Z,599
2024-02-11T10:55:47.953Z,599
2024-02-11T10:56:47.931Z,599
2024-02-11T10:57:47.933Z,599
2024-02-11T10:58:47.980Z,606
2024-02-11T10:59:47.945Z,606
2024-02-11T11:00:47.948Z,606
2024-02-11T11:01:47.939Z,606
2024-02-11T11:02:47.934Z,606
2024-02-11T11:03:47.947Z,632
2024-02-11T11:04:48.030Z,632
2024-02-11T11:05:48.020Z,632
2024-02-11T11:06:47.959Z,632
2024-02-11T11:07:47.962Z,632
2024-02-11T11:08:47.945Z,668
2024-02-11T11:09:47.949Z,668
2024-02-11T11:10:47.989Z,668
2024-02-11T11:11:47.946Z,668
2024-02-11T11:12:48.009Z,668
2024-02-11T11:13:47.964Z,697
2024-02-11T11:14:47.978Z,697
2024-02-11T11:15:47.954Z,697
2024-02-11T11:16:48.140Z,697
2024-02-11T11:17:47.995Z,697
2024-02-11T11:18:47.983Z,703
2024-02-11T11:19:47.998Z,703
2024-02-11T11:20:47.965Z,703
2024-02-11T11:21:47.970Z,703
2024-02-11T11:22:48.035Z,703
2024-02-11T11:23:47.972Z,722
2024-02-11T11:24:47.970Z,722
2024-02-11T11:25:47.979Z,722
2024-02-11T11:26:47.975Z,722
2024-02-11T11:27:47.980Z,722
2024-02-11T11:28:48.035Z,811
2024-02-11T11:29:47.977Z,811
2024-02-11T11:30:48.013Z,811
2024-02-11T11:31:48.011Z,811
2024-02-11T11:32:48.111Z,811
2024-02-11T11:33:48.005Z,868
2024-02-11T11:34:47.999Z,868
2024-02-11T11:35:47.990Z,868
2024-02-11T11:36:47.990Z,868
2024-02-11T11:37:48.036Z,868
2024-02-11T11:38:47.987Z,936
2024-02-11T11:39:47.997Z,936
2024-02-11T11:40:47.999Z,936
2024-02-11T11:41:48.007Z,936
2024-02-11T11:42:48.003Z,936
2024-02-11T11:43:48.009Z,929
2024-02-11T11:44:48.006Z,929
2024-02-11T11:45:48.006Z,929
2024-02-11T11:46:48.048Z,929
2024-02-11T11:47:48.036Z,929
2024-02-11T11:48:48.015Z,880
2024-02-11T11:49:48.022Z,880
2024-02-11T11:50:48.008Z,880
2024-02-11T11:51:48.009Z,880
2024-02-11T11:52:48.012Z,880
2024-02-11T11:53:48.014Z,846
2024-02-11T11:54:48.018Z,846
2024-02-11T11:55:48.066Z,846
2024-02-11T11:56:48.021Z,846
2024-02-11T11:57:48.019Z,846
2024-02-11T11:58:48.055Z,859
2024-02-11T11:59:48.020Z,859
2024-02-11T12:00:48.097Z,859
2024-02-11T12:01:48.082Z,859
2024-02-11T12:02:48.057Z,859
2024-02-11T12:03:48.067Z,847
2024-02-11T12:04:48.025Z,847
2024-02-11T12:05:48.083Z,847
2024-02-11T12:06:48.028Z,847
2024-02-11T12:07:48.051Z,847
2024-02-11T12:08:48.026Z,853
2024-02-11T12:09:48.038Z,853
2024-02-11T12:10:48.059Z,853
2024-02-11T12:11:48.040Z,853
2024-02-11T12:12:48.038Z,853
2024-02-11T12:13:48.069Z,826
2024-02-11T12:14:48.042Z,826
2024-02-11T12:15:48.042Z,826
2024-02-11T12:16:48.094Z,826
2024-02-11T12:17:48.099Z,826
2024-02-11T12:18:48.265Z,881
2024-02-11T12:19:48.082Z,881
2024-02-11T12:20:48.046Z,881
2024-02-11T12:21:48.046Z,881
2024-02-11T12:22:48.051Z,881
2024-02-11T12:23:48.051Z,840
2024-02-11T12:24:48.063Z,840
2024-02-11T12:25:48.061Z,840
2024-02-11T12:26:48.063Z,840
2024-02-11T12:27:48.061Z,840
2024-02-11T12:28:48.086Z,740
2024-02-11T12:29:48.059Z,740
2024-02-11T12:30:48.086Z,740
2024-02-11T12:31:48.080Z,740
2024-02-11T12:32:48.124Z,740
2024-02-11T12:33:48.128Z,746
2024-02-11T12:34:48.129Z,746
2024-02-11T12:35:48.098Z,746
2024-02-11T12:36:48.072Z,746
2024-02-11T12:37:48.100Z,746
2024-02-11T12:38:48.116Z,728
2024-02-11T12:39:48.077Z,728
2024-02-11T12:40:48.088Z,728
2024-02-11T12:41:48.080Z,728
2024-02-11T12:42:48.078Z,728
2024-02-11T12:43:48.076Z,658
2024-02-11T12:44:48.081Z,658
2024-02-11T12:45:48.084Z,658
2024-02-11T12:46:48.120Z,658
2024-02-11T12:47:48.133Z,658
2024-02-11T12:48:48.205Z,682
2024-02-11T12:49:48.097Z,682
2024-02-11T12:50:48.114Z,682
2024-02-11T12:51:48.086Z,682
2024-02-11T12:52:48.107Z,682
2024-02-11T12:53:48.145Z,690
2024-02-11T12:54:48.093Z,690
2024-02-11T12:55:48.115Z,690
2024-02-11T12:56:48.096Z,690
2024-02-11T12:57:48.117Z,690
2024-02-11T12:58:48.164Z,685
2024-02-11T12:59:48.157Z,685
2024-02-11T13:00:48.109Z,685
2024-02-11T13:01:48.117Z,685
2024-02-11T13:02:48.103Z,685
2024-02-11T13:03:48.133Z,714
2024-02-11T13:04:48.114Z,714
2024-02-11T13:05:48.143Z,714
2024-02-11T13:06:48.160Z,714
2024-02-11T13:07:48.125Z,714
2024-02-11T13:08:48.443Z,674
2024-02-11T13:09:48.109Z,674
2024-02-11T13:10:48.113Z,674
2024-02-11T13:11:48.107Z,674
2024-02-11T13:12:48.109Z,674
2024-02-11T13:13:48.146Z,565
2024-02-11T13:14:48.117Z,565
2024-02-11T13:15:48.111Z,565
2024-02-11T13:16:48.125Z,565
2024-02-11T13:17:48.198Z,565
2024-02-11T13:18:48.238Z,509
2024-02-11T13:19:48.122Z,509
2024-02-11T13:20:48.138Z,509
2024-02-11T13:21:49.615Z,509
2024-02-11T13:22:48.220Z,509
2024-02-11T13:23:48.121Z,535
2024-02-11T13:24:48.121Z,535
2024-02-11T13:25:48.130Z,535
2024-02-11T13:26:48.133Z,535
2024-02-11T13:27:48.127Z,535
2024-02-11T13:28:48.167Z,624
2024-02-11T13:29:48.137Z,624
2024-02-11T13:30:48.135Z,624
2024-02-11T13:31:48.148Z,624
2024-02-11T13:32:48.739Z,624
2024-02-11T13:33:48.285Z,654
2024-02-11T13:34:48.330Z,654
2024-02-11T13:35:48.161Z,654
2024-02-11T13:36:48.153Z,654
2024-02-11T13:37:48.159Z,654
2024-02-11T13:38:48.177Z,561
2024-02-11T13:39:48.155Z,561
2024-02-11T13:40:48.152Z,561
2024-02-11T13:41:48.146Z,561
2024-02-11T13:42:48.150Z,561
2024-02-11T13:43:48.160Z,498
2024-02-11T13:44:48.151Z,498
2024-02-11T13:45:48.158Z,498
2024-02-11T13:46:48.169Z,498
2024-02-11T13:47:48.276Z,498
2024-02-11T13:48:48.230Z,502
2024-02-11T13:49:48.170Z,502
2024-02-11T13:50:48.160Z,502
2024-02-11T13:51:48.161Z,502
2024-02-11T13:52:48.167Z,502
2024-02-11T13:53:48.164Z,420
2024-02-11T13:54:48.182Z,420
2024-02-11T13:55:48.185Z,420
2024-02-11T13:56:48.167Z,420
2024-02-11T13:57:48.169Z,420
2024-02-11T13:58:48.177Z,397
2024-02-11T13:59:48.177Z,397
2024-02-11T14:00:48.361Z,397
2024-02-11T14:01:48.376Z,397
2024-02-11T14:02:48.237Z,397
2024-02-11T14:03:48.287Z,383
2024-02-11T14:04:48.206Z,383
2024-02-11T14:05:48.203Z,383
2024-02-11T14:06:48.223Z,383
2024-02-11T14:07:48.219Z,383
2024-02-11T14:08:48.180Z,354
2024-02-11T14:09:48.190Z,354
2024-02-11T14:10:48.256Z,354
2024-02-11T14:11:48.190Z,354
2024-02-11T14:12:49.529Z,354
2024-02-11T14:13:48.194Z,335
2024-02-11T14:14:48.185Z,335
2024-02-11T14:15:48.199Z,335